createdAt,value
2022-12-08T08:32:41.773Z,73.36
2022-12-08T08:37:51.021Z,72.84
2022-12-08T08:40:18.681Z,72.70
2022-12-08T08:46:49.143Z,72.19
2022-12-08T08:49:16.549Z,72.08
2022-12-08T08:51:43.966Z,71.74
2022-12-08T08:54:11.462Z,71.71
2022-12-08T08:56:38.791Z,71.49
2022-12-08T08:59:06.196Z,70.93
2022-12-08T09:01:34.399Z,70.39
2022-12-08T09:04:02.021Z,70.27
2022-12-08T09:06:29.603Z,70.48
2022-12-08T09:08:57.290Z,70.46
2022-12-08T09:11:24.673Z,69.97
2022-12-08T09:13:54.210Z,69.33
2022-12-08T09:16:22.886Z,69.87
2022-12-08T09:18:50.549Z,69.41
2022-12-08T09:21:24.219Z,68.71
2022-12-08T09:23:57.549Z,68.53
2022-12-08T09:26:27.302Z,68.83
2022-12-08T09:28:56.954Z,68.62
2022-12-08T09:31:25.289Z,68.20
2022-12-08T09:33:52.822Z,67.67
2022-12-08T09:36:21.595Z,67.83
2022-12-08T09:38:51.069Z,67.68
2022-12-08T09:41:43.292Z,67.43
2022-12-08T09:45:02.530Z,66.76
2022-12-08T09:47:44.174Z,66.84
2022-12-08T09:50:31.046Z,67.08
2022-12-08T09:54:07.937Z,66.12
2022-12-08T09:56:37.813Z,66.25
2022-12-08T09:59:32.946Z,66.89
2022-12-08T10:02:09.680Z,67.13
2022-12-08T10:04:38.820Z,65.65
2022-12-08T10:07:54.957Z,65.99
2022-12-08T10:10:57.345Z,65.59
2022-12-08T10:14:14.450Z,65.96
2022-12-08T10:16:48.556Z,66.20
2022-12-08T10:19:25.420Z,65.37
2022-12-08T10:21:54.407Z,65.63
2022-12-08T10:24:41.723Z,65.26
2022-12-08T10:27:13.468Z,66.17
2022-12-08T10:29:41.314Z,66.17
2022-12-08T10:32:24.429Z,64.50
2022-12-08T10:35:12.258Z,64.31
2022-12-08T10:37:40.989Z,63.84
2022-12-08T10:40:18.302Z,63.97
2022-12-08T10:42:56.406Z,63.33
2022-12-08T10:45:37.299Z,63.44
2022-12-08T10:48:27.842Z,63.16
2022-12-08T10:50:59.221Z,64.56
2022-12-08T10:53:34.162Z,64.47
2022-12-08T10:56:04.420Z,65.56
2022-12-08T10:58:44.918Z,65.50
2022-12-08T11:01:25.543Z,64.80
2022-12-08T11:04:01.735Z,64.88
2022-12-08T11:06:37.649Z,65.24
2022-12-08T11:09:18.110Z,64.38
2022-12-08T11:11:55.326Z,64.35
2022-12-08T11:14:42.612Z,65.08
2022-12-08T11:17:21.638Z,65.14
2022-12-08T11:20:10.788Z,65.14
2022-12-08T11:22:53.186Z,64.11
2022-12-08T11:25:28.508Z,62.32
2022-12-08T11:28:01.781Z,61.85
2022-12-08T11:30:47.729Z,61.04
2022-12-08T11:33:29.153Z,59.83
2022-12-08T11:36:09.104Z,59.86
2022-12-08T11:38:47.213Z,58.05
2022-12-08T11:41:26.168Z,58.48
2022-12-08T11:44:41.037Z,56.58
2022-12-08T11:47:28.850Z,55.98
2022-12-08T11:50:32.600Z,57.40
2022-12-08T11:53:01.687Z,55.72
2022-12-08T11:55:55.148Z,54.81
2022-12-08T11:58:56.426Z,55.25
2022-12-08T12:01:26.812Z,55.72
2022-12-08T12:05:01.072Z,54.20
2022-12-08T12:08:03.754Z,53.80
2022-12-08T12:10:43.110Z,54.50
2022-12-08T12:13:58.387Z,54.95
2022-12-08T12:16:55.521Z,55.80
2022-12-08T12:19:24.330Z,55.48
2022-12-08T12:22:15.652Z,55.71
2022-12-08T12:24:49.237Z,56.12
2022-12-08T12:27:29.765Z,57.32
2022-12-08T12:30:04.177Z,58.61
2022-12-08T12:32:59.914Z,58.82
2022-12-08T12:35:47.941Z,60.04
2022-12-08T12:39:08.612Z,60.32
2022-12-08T12:41:47.850Z,61.14
2022-12-08T12:44:15.058Z,60.86
2022-12-08T12:46:51.108Z,62.48
2022-12-08T12:49:40.154Z,61.50
2022-12-08T12:52:10.182Z,61.63
2022-12-08T12:54:42.270Z,62.32
2022-12-08T12:57:09.460Z,62.60
2022-12-08T13:00:05.368Z,62.59
2022-12-08T13:02:46.060Z,64.18
2022-12-08T13:05:13.275Z,64.05
2022-12-08T13:08:07.066Z,63.55
2022-12-08T13:10:48.622Z,63.34
2022-12-08T13:13:19.031Z,63.03
2022-12-08T13:16:24.829Z,63.50
2022-12-08T13:19:02.480Z,63.72
2022-12-08T13:21:39.030Z,63.95
2022-12-08T13:24:24.364Z,64.98
2022-12-08T13:27:11.496Z,65.37
2022-12-08T13:29:40.113Z,65.81
2022-12-08T13:32:10.323Z,66.13
2022-12-08T13:35:11.882Z,65.27
2022-12-08T13:37:54.862Z,65.06
2022-12-08T13:40:30.266Z,65.69
2022-12-08T13:43:55.630Z,65.91
2022-12-08T13:47:09.806Z,66.46
2022-12-08T13:51:07.037Z,68.05
2022-12-08T13:56:59.645Z,67.75
2022-12-08T13:58:47.417Z,67.49
2022-12-08T14:01:25.022Z,67.14
2022-12-08T14:04:34.127Z,67.27
2022-12-08T14:06:59.404Z,67.93
2022-12-08T14:09:36.414Z,68.75
2022-12-08T14:12:26.464Z,69.52
2022-12-08T14:15:04.395Z,69.39
2022-12-08T14:17:33.793Z,69.13
2022-12-08T14:20:57.920Z,69.86
2022-12-08T14:23:22.847Z,68.41
2022-12-08T14:25:50.307Z,69.09
2022-12-08T14:28:18.050Z,69.32
2022-12-08T14:30:45.571Z,70.34
2022-12-08T14:33:17.514Z,70.95
2022-12-08T14:35:54.931Z,70.98
2022-12-08T14:38:26.051Z,71.42
2022-12-08T14:41:08.753Z,70.61
2022-12-08T14:43:36.496Z,69.65
2022-12-08T14:46:22.963Z,70.00
2022-12-08T14:48:50.516Z,70.26
2022-12-08T14:51:20.937Z,70.68
2022-12-08T14:54:13.375Z,72.22
2022-12-08T14:56:56.097Z,71.57
2022-12-08T14:59:39.148Z,71.34
2022-12-08T15:02:27.128Z,71.09
2022-12-08T15:05:16.011Z,70.72
2022-12-08T15:07:54.016Z,72.22
2022-12-08T15:10:31.967Z,71.66
2022-12-08T15:13:10.345Z,71.08
2022-12-08T15:15:57.767Z,70.11
2022-12-08T15:18:41.164Z,71.96
2022-12-08T15:21:13.015Z,71.36
2022-12-08T15:23:50.375Z,70.30
2022-12-08T15:26:27.412Z,71.29
2022-12-08T15:28:55.830Z,72.09
2022-12-08T15:31:23.331Z,72.89
2022-12-08T15:33:50.892Z,72.63
2022-12-08T15:36:18.220Z,72.95
2022-12-08T15:38:45.632Z,72.91
2022-12-08T15:41:15.212Z,71.55
2022-12-08T15:43:43.034Z,70.70
2022-12-08T15:46:10.555Z,71.31
2022-12-08T15:48:38.450Z,70.97
2022-12-08T15:51:05.859Z,70.81
2022-12-08T15:53:33.290Z,71.13
2022-12-08T15:58:55.609Z,71.89
2022-12-08T16:01:24.886Z,71.61
2022-12-08T16:09:47.899Z,71.61
2022-12-08T16:15:59.017Z,71.91
2022-12-08T16:18:34.484Z,71.48
2022-12-08T16:21:22.857Z,71.65
2022-12-08T16:23:49.934Z,71.46
2022-12-08T16:29:20.781Z,72.90
2022-12-08T16:31:48.474Z,72.22
2022-12-08T16:34:16.224Z,72.27
2022-12-08T16:36:43.665Z,72.48
2022-12-08T16:39:14.622Z,72.05
2022-12-08T16:42:02.346Z,72.05
2022-12-08T16:44:30.051Z,72.16
2022-12-08T16:46:57.523Z,71.87
2022-12-08T16:49:25.067Z,72.65
2022-12-08T16:51:52.524Z,71.71
2022-12-08T16:54:19.910Z,71.26
2022-12-08T16:56:47.326Z,71.55
2022-12-08T16:59:14.756Z,71.58
2022-12-08T17:01:42.164Z,72.05
2022-12-08T17:06:58.178Z,72.80
2022-12-08T17:09:28.546Z,73.08
2022-12-08T17:12:01.824Z,72.58
2022-12-08T17:14:35.501Z,72.22
2022-12-08T17:17:03.018Z,72.73
2022-12-08T17:19:30.441Z,72.51
2022-12-08T17:21:57.881Z,73.06
2022-12-08T17:24:29.027Z,72.86
2022-12-08T17:26:58.817Z,72.32
2022-12-08T17:29:26.236Z,73.09
2022-12-08T17:31:53.729Z,74.02
2022-12-08T17:34:21.208Z,73.70
2022-12-08T17:36:48.619Z,73.96
2022-12-08T17:39:18.764Z,73.94
2022-12-08T17:41:47.938Z,72.79
2022-12-08T17:44:19.431Z,73.25
2022-12-08T17:46:52.610Z,73.99
2022-12-08T17:49:29.629Z,75.50
2022-12-08T17:52:06.972Z,73.79
2022-12-08T17:54:35.867Z,74.05
2022-12-08T17:57:03.995Z,73.61
2022-12-08T17:59:32.020Z,73.34
2022-12-08T18:01:59.873Z,73.59
2022-12-08T18:04:29.223Z,72.77
2022-12-08T18:06:59.350Z,72.61
2022-12-08T18:09:26.847Z,73.09
2022-12-08T18:11:54.320Z,73.03
2022-12-08T18:14:21.924Z,74.31
2022-12-08T18:16:49.550Z,74.02
2022-12-08T18:19:17.106Z,73.51
2022-12-08T18:21:44.949Z,73.21
2022-12-08T18:24:23.450Z,73.95
2022-12-08T18:26:52.595Z,73.49
2022-12-08T18:29:22.414Z,73.83
2022-12-08T18:31:51.523Z,74.52
2022-12-08T18:34:19.132Z,76.60
2022-12-08T18:36:47.121Z,76.31
2022-12-08T18:39:30.562Z,75.10
2022-12-08T18:42:02.603Z,75.07
2022-12-08T18:44:29.978Z,75.56
2022-12-08T18:46:58.207Z,75.28
2022-12-08T18:49:26.470Z,74.63
2022-12-08T18:51:53.892Z,74.13
2022-12-08T18:54:27.661Z,75.15
2022-12-08T18:57:06.400Z,73.90
2022-12-08T18:59:33.903Z,74.24
2022-12-08T19:02:01.379Z,73.40
2022-12-08T19:04:29.529Z,73.87
2022-12-08T19:06:58.102Z,73.99
2022-12-08T19:09:26.920Z,73.87
2022-12-08T19:11:55.527Z,74.78
2022-12-08T19:14:28.114Z,75.41
2022-12-08T19:16:59.756Z,75.02
2022-12-08T19:19:28.256Z,74.48
2022-12-08T19:21:56.379Z,74.44
2022-12-08T19:24:25.261Z,74.75
2022-12-08T19:26:53.374Z,74.24
2022-12-08T19:29:20.932Z,75.02
2022-12-08T19:31:48.382Z,73.41
2022-12-08T19:34:15.850Z,73.11
2022-12-08T19:36:43.624Z,73.17
2022-12-08T19:40:01.023Z,74.13
2022-12-08T19:42:46.919Z,74.04
2022-12-08T19:45:22.110Z,74.23
2022-12-08T19:47:50.611Z,74.30
2022-12-08T19:50:36.683Z,73.83
2022-12-08T19:53:15.553Z,73.85
2022-12-08T19:55:44.374Z,74.44
2022-12-08T19:58:11.895Z,73.53
2022-12-08T20:00:41.280Z,73.19
2022-12-08T20:03:09.041Z,73.51
2022-12-08T20:05:37.330Z,74.02
2022-12-08T20:08:05.184Z,73.26
2022-12-08T20:10:38.825Z,72.90
2022-12-08T20:13:27.251Z,72.97
2022-12-08T20:15:55.064Z,73.13
2022-12-08T20:18:22.688Z,73.05
2022-12-08T20:20:50.297Z,72.75
2022-12-08T20:23:17.969Z,73.16
2022-12-08T20:25:47.759Z,73.73
2022-12-08T20:28:15.601Z,73.41
2022-12-08T20:30:46.788Z,72.93
2022-12-08T20:33:19.473Z,73.52
2022-12-08T20:35:47.810Z,72.80
